sensor_id;sensor_type;location;lat;lon;timestamp;pressure;altitude;pressure_sealevel;temperature
66299;BMP180;53098;47.658;8.578;2023-08-06T00:00:34;95896.00;;;19.00
66299;BMP180;53098;47.658;8.578;2023-08-06T00:03:00;95883.00;;;19.10
66299;BMP180;53098;47.658;8.578;2023-08-06T00:05:25;95893.00;;;19.00
66299;BMP180;53098;47.658;8.578;2023-08-06T00:07:51;95886.00;;;19.00
66299;BMP180;53098;47.658;8.578;2023-08-06T00:10:17;95873.00;;;19.00
66299;BMP180;53098;47.658;8.578;2023-08-06T00:12:43;95873.00;;;19.00
66299;BMP180;53098;47.658;8.578;2023-08-06T00:15:10;95877.00;;;19.00
66299;BMP180;53098;47.658;8.578;2023-08-06T00:17:36;95873.00;;;18.90
66299;BMP180;53098;47.658;8.578;2023-08-06T00:20:03;95868.00;;;18.80
66299;BMP180;53098;47.658;8.578;2023-08-06T00:22:29;95868.00;;;18.80
66299;BMP180;53098;47.658;8.578;2023-08-06T00:24:54;95868.00;;;18.80
66299;BMP180;53098;47.658;8.578;2023-08-06T00:27:19;95869.00;;;18.70
66299;BMP180;53098;47.658;8.578;2023-08-06T00:29:45;95856.00;;;18.70
66299;BMP180;53098;47.658;8.578;2023-08-06T00:32:10;95863.00;;;18.70
66299;BMP180;53098;47.658;8.578;2023-08-06T00:34:36;95869.00;;;18.60
66299;BMP180;53098;47.658;8.578;2023-08-06T00:37:02;95864.00;;;18.60
66299;BMP180;53098;47.658;8.578;2023-08-06T00:39:27;95861.00;;;18.60
66299;BMP180;53098;47.658;8.578;2023-08-06T00:41:53;95850.00;;;18.60
66299;BMP180;53098;47.658;8.578;2023-08-06T00:44:18;95858.00;;;18.60
66299;BMP180;53098;47.658;8.578;2023-08-06T00:46:44;95841.00;;;18.60
66299;BMP180;53098;47.658;8.578;2023-08-06T00:49:09;95842.00;;;18.50
66299;BMP180;53098;47.658;8.578;2023-08-06T00:51:35;95847.00;;;18.40
66299;BMP180;53098;47.658;8.578;2023-08-06T00:54:01;95845.00;;;18.30
66299;BMP180;53098;47.658;8.578;2023-08-06T00:56:27;95847.00;;;18.20
66299;BMP180;53098;47.658;8.578;2023-08-06T00:58:54;95844.00;;;18.20
66299;BMP180;53098;47.658;8.578;2023-08-06T01:01:19;95839.00;;;18.20
66299;BMP180;53098;47.658;8.578;2023-08-06T01:03:45;95823.00;;;18.10
66299;BMP180;53098;47.658;8.578;2023-08-06T01:06:11;95821.00;;;18.10
66299;BMP180;53098;47.658;8.578;2023-08-06T01:09:01;95826.00;;;18.10
66299;BMP180;53098;47.658;8.578;2023-08-06T01:11:49;95825.00;;;18.00
66299;BMP180;53098;47.658;8.578;2023-08-06T01:15:11;95819.00;;;17.80
66299;BMP180;53098;47.658;8.578;2023-08-06T01:17:11;95808.00;;;17.80
66299;BMP180;53098;47.658;8.578;2023-08-06T01:19:37;95804.00;;;17.70
66299;BMP180;53098;47.658;8.578;2023-08-06T01:22:03;95812.00;;;17.60
66299;BMP180;53098;47.658;8.578;2023-08-06T01:24:29;95814.00;;;17.70
66299;BMP180;53098;47.658;8.578;2023-08-06T01:27:05;95819.00;;;17.70
66299;BMP180;53098;47.658;8.578;2023-08-06T01:32:03;95821.00;;;17.50
66299;BMP180;53098;47.658;8.578;2023-08-06T01:34:31;95826.00;;;17.50
66299;BMP180;53098;47.658;8.578;2023-08-06T01:36:59;95830.00;;;17.30
66299;BMP180;53098;47.658;8.578;2023-08-06T01:39:26;95816.00;;;17.30
66299;BMP180;53098;47.658;8.578;2023-08-06T01:41:51;95808.00;;;17.30
66299;BMP180;53098;47.658;8.578;2023-08-06T01:44:17;95806.00;;;17.30
66299;BMP180;53098;47.658;8.578;2023-08-06T01:46:42;95796.00;;;17.30
66299;BMP180;53098;47.658;8.578;2023-08-06T01:49:08;95791.00;;;17.30
66299;BMP180;53098;47.658;8.578;2023-08-06T01:51:33;95794.00;;;17.30
66299;BMP180;53098;47.658;8.578;2023-08-06T01:53:59;95793.00;;;17.30
66299;BMP180;53098;47.658;8.578;2023-08-06T01:56:24;95783.00;;;17.30
66299;BMP180;53098;47.658;8.578;2023-08-06T01:58:50;95779.00;;;17.30
66299;BMP180;53098;47.658;8.578;2023-08-06T02:01:15;95776.00;;;17.40
66299;BMP180;53098;47.658;8.578;2023-08-06T02:03:41;95778.00;;;17.40
66299;BMP180;53098;47.658;8.578;2023-08-06T02:06:06;95770.00;;;17.40
66299;BMP180;53098;47.658;8.578;2023-08-06T02:08:32;95760.00;;;17.30
66299;BMP180;53098;47.658;8.578;2023-08-06T02:10:58;95754.00;;;17.40
66299;BMP180;53098;47.658;8.578;2023-08-06T02:13:23;95755.00;;;17.40
66299;BMP180;53098;47.658;8.578;2023-08-06T02:15:48;95768.00;;;17.50
66299;BMP180;53098;47.658;8.578;2023-08-06T02:18:15;95766.00;;;17.50
66299;BMP180;53098;47.658;8.578;2023-08-06T02:20:41;95762.00;;;17.40
66299;BMP180;53098;47.658;8.578;2023-08-06T02:23:06;95758.00;;;17.40
66299;BMP180;53098;47.658;8.578;2023-08-06T02:25:32;95756.00;;;17.30
66299;BMP180;53098;47.658;8.578;2023-08-06T02:27:57;95746.00;;;17.30
66299;BMP180;53098;47.658;8.578;2023-08-06T02:30:23;95750.00;;;17.30
66299;BMP180;53098;47.658;8.578;2023-08-06T02:32:48;95753.00;;;17.20
66299;BMP180;53098;47.658;8.578;2023-08-06T02:35:14;95751.00;;;17.30
66299;BMP180;53098;47.658;8.578;2023-08-06T02:37:39;95751.00;;;17.10
66299;BMP180;53098;47.658;8.578;2023-08-06T02:40:05;95741.00;;;17.10
66299;BMP180;53098;47.658;8.578;2023-08-06T02:42:31;95753.00;;;17.10
66299;BMP180;53098;47.658;8.578;2023-08-06T02:44:57;95751.00;;;17.10
66299;BMP180;53098;47.658;8.578;2023-08-06T02:47:22;95739.00;;;17.00
66299;BMP180;53098;47.658;8.578;2023-08-06T02:49:48;95734.00;;;17.10
66299;BMP180;53098;47.658;8.578;2023-08-06T02:52:13;95738.00;;;17.10
66299;BMP180;53098;47.658;8.578;2023-08-06T02:54:39;95737.00;;;16.90
66299;BMP180;53098;47.658;8.578;2023-08-06T02:57:05;95732.00;;;16.90
66299;BMP180;53098;47.658;8.578;2023-08-06T02:59:31;95729.00;;;17.00
66299;BMP180;53098;47.658;8.578;2023-08-06T03:01:56;95722.00;;;16.80
66299;BMP180;53098;47.658;8.578;2023-08-06T03:04:22;95720.00;;;16.80
66299;BMP180;53098;47.658;8.578;2023-08-06T03:06:50;95722.00;;;16.60
66299;BMP180;53098;47.658;8.578;2023-08-06T03:09:17;95716.00;;;16.60
66299;BMP180;53098;47.658;8.578;2023-08-06T03:11:42;95727.00;;;16.80
66299;BMP180;53098;47.658;8.578;2023-08-06T03:14:08;95728.00;;;16.70
66299;BMP180;53098;47.658;8.578;2023-08-06T03:16:33;95726.00;;;16.80
66299;BMP180;53098;47.658;8.578;2023-08-06T03:18:59;95715.00;;;16.90
66299;BMP180;53098;47.658;8.578;2023-08-06T03:21:24;95719.00;;;16.90
66299;BMP180;53098;47.658;8.578;2023-08-06T03:23:50;95719.00;;;17.00
66299;BMP180;53098;47.658;8.578;2023-08-06T03:26:16;95706.00;;;17.00
66299;BMP180;53098;47.658;8.578;2023-08-06T03:28:41;95697.00;;;17.00
66299;BMP180;53098;47.658;8.578;2023-08-06T03:31:07;95708.00;;;17.00
66299;BMP180;53098;47.658;8.578;2023-08-06T03:33:32;95705.00;;;17.20
66299;BMP180;53098;47.658;8.578;2023-08-06T03:35:58;95703.00;;;16.90
66299;BMP180;53098;47.658;8.578;2023-08-06T03:38:24;95700.00;;;17.00
66299;BMP180;53098;47.658;8.578;2023-08-06T03:40:49;95706.00;;;17.20
66299;BMP180;53098;47.658;8.578;2023-08-06T03:43:15;95701.00;;;17.30
66299;BMP180;53098;47.658;8.578;2023-08-06T03:45:41;95710.00;;;17.40
66299;BMP180;53098;47.658;8.578;2023-08-06T03:48:07;95704.00;;;17.30
66299;BMP180;53098;47.658;8.578;2023-08-06T03:50:33;95716.00;;;17.00
66299;BMP180;53098;47.658;8.578;2023-08-06T03:52:58;95720.00;;;17.00
66299;BMP180;53098;47.658;8.578;2023-08-06T03:55:24;95724.00;;;17.10
66299;BMP180;53098;47.658;8.578;2023-08-06T03:57:50;95752.00;;;17.30
66299;BMP180;53098;47.658;8.578;2023-08-06T04:00:15;95762.00;;;17.00
66299;BMP180;53098;47.658;8.578;2023-08-06T04:02:41;95762.00;;;16.80
66299;BMP180;53098;47.658;8.578;2023-08-06T04:05:07;95768.00;;;16.90
66299;BMP180;53098;47.658;8.578;2023-08-06T04:07:32;95756.00;;;16.70
66299;BMP180;53098;47.658;8.578;2023-08-06T04:10:02;95773.00;;;16.80
66299;BMP180;53098;47.658;8.578;2023-08-06T04:12:29;95777.00;;;16.30
66299;BMP180;53098;47.658;8.578;2023-08-06T04:14:57;95771.00;;;16.50
66299;BMP180;53098;47.658;8.578;2023-08-06T04:17:22;95789.00;;;16.10
66299;BMP180;53098;47.658;8.578;2023-08-06T04:19:50;228747.00;;;16.10
66299;BMP180;53098;47.658;8.578;2023-08-06T04:22:16;95775.00;;;16.10
66299;BMP180;53098;47.658;8.578;2023-08-06T04:24:42;95776.00;;;16.10
66299;BMP180;53098;47.658;8.578;2023-08-06T04:27:08;95780.00;;;16.20
66299;BMP180;53098;47.658;8.578;2023-08-06T04:29:33;95788.00;;;16.10
66299;BMP180;53098;47.658;8.578;2023-08-06T04:31:59;95807.00;;;15.80
66299;BMP180;53098;47.658;8.578;2023-08-06T04:34:24;95796.00;;;15.70
66299;BMP180;53098;47.658;8.578;2023-08-06T04:36:50;95794.00;;;15.60
66299;BMP180;53098;47.658;8.578;2023-08-06T04:39:15;95798.00;;;15.50
66299;BMP180;53098;47.658;8.578;2023-08-06T04:41:41;95801.00;;;15.60
66299;BMP180;53098;47.658;8.578;2023-08-06T04:44:06;95795.00;;;15.40
66299;BMP180;53098;47.658;8.578;2023-08-06T04:46:31;95808.00;;;15.00
66299;BMP180;53098;47.658;8.578;2023-08-06T04:48:57;95806.00;;;15.20
66299;BMP180;53098;47.658;8.578;2023-08-06T04:51:22;95804.00;;;15.00
66299;BMP180;53098;47.658;8.578;2023-08-06T04:53:48;95795.00;;;15.20
66299;BMP180;53098;47.658;8.578;2023-08-06T04:56:13;95799.00;;;15.30
66299;BMP180;53098;47.658;8.578;2023-08-06T04:58:39;95805.00;;;15.10
66299;BMP180;53098;47.658;8.578;2023-08-06T05:01:04;95810.00;;;15.00
66299;BMP180;53098;47.658;8.578;2023-08-06T05:03:29;95810.00;;;15.10
66299;BMP180;53098;47.658;8.578;2023-08-06T05:05:55;95822.00;;;15.00
66299;BMP180;53098;47.658;8.578;2023-08-06T05:08:20;95812.00;;;14.80
66299;BMP180;53098;47.658;8.578;2023-08-06T05:10:46;95828.00;;;14.70
66299;BMP180;53098;47.658;8.578;2023-08-06T05:13:12;95818.00;;;15.00
66299;BMP180;53098;47.658;8.578;2023-08-06T05:15:37;95823.00;;;14.90
66299;BMP180;53098;47.658;8.578;2023-08-06T05:18:02;95836.00;;;14.80
66299;BMP180;53098;47.658;8.578;2023-08-06T05:20:28;95812.00;;;14.90
66299;BMP180;53098;47.658;8.578;2023-08-06T05:22:53;95837.00;;;15.00
66299;BMP180;53098;47.658;8.578;2023-08-06T05:25:20;95830.00;;;15.20
66299;BMP180;53098;47.658;8.578;2023-08-06T05:27:45;95823.00;;;14.80
66299;BMP180;53098;47.658;8.578;2023-08-06T05:30:11;95819.00;;;14.80
66299;BMP180;53098;47.658;8.578;2023-08-06T05:32:36;95826.00;;;14.90
66299;BMP180;53098;47.658;8.578;2023-08-06T05:35:02;95807.00;;;14.80
66299;BMP180;53098;47.658;8.578;2023-08-06T05:37:28;95815.00;;;15.00
66299;BMP180;53098;47.658;8.578;2023-08-06T05:39:53;95828.00;;;14.90
66299;BMP180;53098;47.658;8.578;2023-08-06T05:42:19;95829.00;;;15.10
66299;BMP180;53098;47.658;8.578;2023-08-06T05:44:44;95817.00;;;15.00
66299;BMP180;53098;47.658;8.578;2023-08-06T05:47:10;95821.00;;;15.00
66299;BMP180;53098;47.658;8.578;2023-08-06T05:49:35;95826.00;;;14.90
66299;BMP180;53098;47.658;8.578;2023-08-06T05:52:01;95828.00;;;14.80
66299;BMP180;53098;47.658;8.578;2023-08-06T05:54:26;95825.00;;;15.00
66299;BMP180;53098;47.658;8.578;2023-08-06T05:56:52;95822.00;;;14.80
66299;BMP180;53098;47.658;8.578;2023-08-06T05:59:17;95822.00;;;14.70
66299;BMP180;53098;47.658;8.578;2023-08-06T06:01:43;95828.00;;;14.80
66299;BMP180;53098;47.658;8.578;2023-08-06T06:04:08;95825.00;;;14.80
66299;BMP180;53098;47.658;8.578;2023-08-06T06:06:34;95829.00;;;14.90
66299;BMP180;53098;47.658;8.578;2023-08-06T06:08:59;95834.00;;;14.90
66299;BMP180;53098;47.658;8.578;2023-08-06T06:11:24;95827.00;;;15.10
66299;BMP180;53098;47.658;8.578;2023-08-06T06:13:51;95831.00;;;14.80
66299;BMP180;53098;47.658;8.578;2023-08-06T06:16:16;95839.00;;;15.00
66299;BMP180;53098;47.658;8.578;2023-08-06T06:18:42;95854.00;;;15.00
66299;BMP180;53098;47.658;8.578;2023-08-06T06:21:07;95824.00;;;14.70
66299;BMP180;53098;47.658;8.578;2023-08-06T06:23:34;95841.00;;;15.20
66299;BMP180;53098;47.658;8.578;2023-08-06T06:25:59;95840.00;;;15.20
66299;BMP180;53098;47.658;8.578;2023-08-06T06:28:25;95848.00;;;15.40
66299;BMP180;53098;47.658;8.578;2023-08-06T06:30:51;95850.00;;;15.00
66299;BMP180;53098;47.658;8.578;2023-08-06T06:33:17;95857.00;;;15.00
66299;BMP180;53098;47.658;8.578;2023-08-06T06:35:45;95878.00;;;15.00
66299;BMP180;53098;47.658;8.578;2023-08-06T06:38:11;95858.00;;;15.00
66299;BMP180;53098;47.658;8.578;2023-08-06T06:40:36;95856.00;;;14.90
66299;BMP180;53098;47.658;8.578;2023-08-06T06:43:02;95873.00;;;15.00
66299;BMP180;53098;47.658;8.578;2023-08-06T06:45:27;95882.00;;;15.00
66299;BMP180;53098;47.658;8.578;2023-08-06T06:47:53;95867.00;;;15.00
66299;BMP180;53098;47.658;8.578;2023-08-06T06:50:18;95884.00;;;14.90
66299;BMP180;53098;47.658;8.578;2023-08-06T06:52:43;95885.00;;;15.10
66299;BMP180;53098;47.658;8.578;2023-08-06T06:55:09;95876.00;;;15.00
66299;BMP180;53098;47.658;8.578;2023-08-06T06:57:34;95886.00;;;15.00
66299;BMP180;53098;47.658;8.578;2023-08-06T07:00:00;95890.00;;;15.10
66299;BMP180;53098;47.658;8.578;2023-08-06T07:02:25;95896.00;;;15.20
66299;BMP180;53098;47.658;8.578;2023-08-06T07:04:50;95898.00;;;15.20
66299;BMP180;53098;47.658;8.578;2023-08-06T07:07:16;95890.00;;;15.20
66299;BMP180;53098;47.658;8.578;2023-08-06T07:09:41;95885.00;;;15.20
66299;BMP180;53098;47.658;8.578;2023-08-06T07:12:07;95894.00;;;15.10
66299;BMP180;53098;47.658;8.578;2023-08-06T07:14:32;95908.00;;;15.30
66299;BMP180;53098;47.658;8.578;2023-08-06T07:16:58;95905.00;;;15.00
66299;BMP180;53098;47.658;8.578;2023-08-06T07:19:24;95890.00;;;15.10
66299;BMP180;53098;47.658;8.578;2023-08-06T07:21:49;95901.00;;;15.20
66299;BMP180;53098;47.658;8.578;2023-08-06T07:24:15;95900.00;;;15.30
66299;BMP180;53098;47.658;8.578;2023-08-06T07:26:40;95903.00;;;15.40
66299;BMP180;53098;47.658;8.578;2023-08-06T07:29:05;95895.00;;;15.60
66299;BMP180;53098;47.658;8.578;2023-08-06T07:31:31;95901.00;;;15.60
66299;BMP180;53098;47.658;8.578;2023-08-06T07:33:57;95895.00;;;15.40
66299;BMP180;53098;47.658;8.578;2023-08-06T07:36:22;95903.00;;;15.40
66299;BMP180;53098;47.658;8.578;2023-08-06T07:38:47;95901.00;;;15.60
66299;BMP180;53098;47.658;8.578;2023-08-06T07:41:13;95906.00;;;15.60
66299;BMP180;53098;47.658;8.578;2023-08-06T07:43:38;95920.00;;;15.50
66299;BMP180;53098;47.658;8.578;2023-08-06T07:46:04;95921.00;;;15.60
66299;BMP180;53098;47.658;8.578;2023-08-06T07:48:29;95928.00;;;15.70
66299;BMP180;53098;47.658;8.578;2023-08-06T07:50:55;95910.00;;;15.60
66299;BMP180;53098;47.658;8.578;2023-08-06T07:53:24;95907.00;;;15.30
66299;BMP180;53098;47.658;8.578;2023-08-06T07:55:53;95921.00;;;15.50
66299;BMP180;53098;47.658;8.578;2023-08-06T07:58:20;95921.00;;;15.40
66299;BMP180;53098;47.658;8.578;2023-08-06T08:00:46;95906.00;;;15.60
66299;BMP180;53098;47.658;8.578;2023-08-06T08:03:15;95911.00;;;15.70
66299;BMP180;53098;47.658;8.578;2023-08-06T08:05:42;95913.00;;;15.50
66299;BMP180;53098;47.658;8.578;2023-08-06T08:08:07;95908.00;;;15.50
66299;BMP180;53098;47.658;8.578;2023-08-06T08:10:33;95910.00;;;15.50
66299;BMP180;53098;47.658;8.578;2023-08-06T08:13:00;95916.00;;;15.80
66299;BMP180;53098;47.658;8.578;2023-08-06T08:15:25;95921.00;;;15.80
66299;BMP180;53098;47.658;8.578;2023-08-06T08:17:51;95917.00;;;15.80
66299;BMP180;53098;47.658;8.578;2023-08-06T08:20:16;95914.00;;;15.60
66299;BMP180;53098;47.658;8.578;2023-08-06T08:22:41;95922.00;;;15.50
66299;BMP180;53098;47.658;8.578;2023-08-06T08:25:07;95924.00;;;15.30
66299;BMP180;53098;47.658;8.578;2023-08-06T08:27:33;95937.00;;;15.50
66299;BMP180;53098;47.658;8.578;2023-08-06T08:29:58;95932.00;;;15.30
66299;BMP180;53098;47.658;8.578;2023-08-06T08:32:24;95936.00;;;15.40
66299;BMP180;53098;47.658;8.578;2023-08-06T08:34:49;95926.00;;;15.20
66299;BMP180;53098;47.658;8.578;2023-08-06T08:37:14;95925.00;;;15.10
66299;BMP180;53098;47.658;8.578;2023-08-06T08:39:40;95923.00;;;15.50
66299;BMP180;53098;47.658;8.578;2023-08-06T08:42:06;95938.00;;;15.40
66299;BMP180;53098;47.658;8.578;2023-08-06T08:44:32;95931.00;;;15.40
66299;BMP180;53098;47.658;8.578;2023-08-06T08:46:57;95945.00;;;15.30
66299;BMP180;53098;47.658;8.578;2023-08-06T08:49:23;95945.00;;;15.40
66299;BMP180;53098;47.658;8.578;2023-08-06T08:51:52;95962.00;;;15.60
66299;BMP180;53098;47.658;8.578;2023-08-06T08:54:18;95954.00;;;15.40
66299;BMP180;53098;47.658;8.578;2023-08-06T08:56:45;95959.00;;;15.40
66299;BMP180;53098;47.658;8.578;2023-08-06T08:59:10;95964.00;;;15.50
66299;BMP180;53098;47.658;8.578;2023-08-06T09:01:37;95964.00;;;15.40
66299;BMP180;53098;47.658;8.578;2023-08-06T09:04:05;95973.00;;;15.30
66299;BMP180;53098;47.658;8.578;2023-08-06T09:06:32;95978.00;;;15.40
66299;BMP180;53098;47.658;8.578;2023-08-06T09:09:12;95966.00;;;15.50
66299;BMP180;53098;47.658;8.578;2023-08-06T09:11:44;95977.00;;;15.40
66299;BMP180;53098;47.658;8.578;2023-08-06T09:14:11;95956.00;;;15.50
66299;BMP180;53098;47.658;8.578;2023-08-06T09:16:37;95991.00;;;15.30
66299;BMP180;53098;47.658;8.578;2023-08-06T09:19:13;95971.00;;;15.30
66299;BMP180;53098;47.658;8.578;2023-08-06T09:21:40;95971.00;;;15.30
66299;BMP180;53098;47.658;8.578;2023-08-06T09:24:09;95977.00;;;15.50
66299;BMP180;53098;47.658;8.578;2023-08-06T09:26:36;95975.00;;;15.50
66299;BMP180;53098;47.658;8.578;2023-08-06T09:29:01;95976.00;;;15.30
66299;BMP180;53098;47.658;8.578;2023-08-06T09:31:38;95981.00;;;15.40
66299;BMP180;53098;47.658;8.578;2023-08-06T09:34:16;95979.00;;;15.40
66299;BMP180;53098;47.658;8.578;2023-08-06T09:36:48;95989.00;;;15.40
66299;BMP180;53098;47.658;8.578;2023-08-06T09:39:21;95982.00;;;15.40
66299;BMP180;53098;47.658;8.578;2023-08-06T09:41:47;95979.00;;;15.40
66299;BMP180;53098;47.658;8.578;2023-08-06T09:44:18;95975.00;;;15.40
66299;BMP180;53098;47.658;8.578;2023-08-06T09:46:50;95975.00;;;15.60
66299;BMP180;53098;47.658;8.578;2023-08-06T09:49:18;95993.00;;;15.50
66299;BMP180;53098;47.658;8.578;2023-08-06T09:51:45;95978.00;;;15.60
66299;BMP180;53098;47.658;8.578;2023-08-06T09:54:15;95986.00;;;15.60
66299;BMP180;53098;47.658;8.578;2023-08-06T09:56:42;95987.00;;;15.60
66299;BMP180;53098;47.658;8.578;2023-08-06T09:59:08;95983.00;;;15.60
66299;BMP180;53098;47.658;8.578;2023-08-06T10:01:34;95986.00;;;15.70
66299;BMP180;53098;47.658;8.578;2023-08-06T10:04:01;95987.00;;;16.00
66299;BMP180;53098;47.658;8.578;2023-08-06T10:06:29;95999.00;;;15.70
66299;BMP180;53098;47.658;8.578;2023-08-06T10:08:55;96001.00;;;15.70
66299;BMP180;53098;47.658;8.578;2023-08-06T10:11:23;96005.00;;;15.70
66299;BMP180;53098;47.658;8.578;2023-08-06T10:13:50;95989.00;;;15.50
66299;BMP180;53098;47.658;8.578;2023-08-06T10:16:17;96002.00;;;15.60
66299;BMP180;53098;47.658;8.578;2023-08-06T10:18:43;95995.00;;;15.70
66299;BMP180;53098;47.658;8.578;2023-08-06T10:21:09;96008.00;;;15.70
66299;BMP180;53098;47.658;8.578;2023-08-06T10:23:36;96005.00;;;15.70
66299;BMP180;53098;47.658;8.578;2023-08-06T10:26:02;95994.00;;;15.60
66299;BMP180;53098;47.658;8.578;2023-08-06T10:28:37;96003.00;;;15.50
66299;BMP180;53098;47.658;8.578;2023-08-06T10:31:03;95995.00;;;15.70
66299;BMP180;53098;47.658;8.578;2023-08-06T10:36:08;96037.00;;;15.90
66299;BMP180;53098;47.658;8.578;2023-08-06T10:38:34;96008.00;;;16.00
66299;BMP180;53098;47.658;8.578;2023-08-06T10:43:28;96041.00;;;15.90
66299;BMP180;53098;47.658;8.578;2023-08-06T10:45:54;96025.00;;;16.20
66299;BMP180;53098;47.658;8.578;2023-08-06T10:50:56;96038.00;;;16.20
66299;BMP180;53098;47.658;8.578;2023-08-06T10:53:21;96039.00;;;16.30
66299;BMP180;53098;47.658;8.578;2023-08-06T10:55:47;96054.00;;;16.30
66299;BMP180;53098;47.658;8.578;2023-08-06T10:58:15;96057.00;;;15.90
66299;BMP180;53098;47.658;8.578;2023-08-06T11:00:41;96040.00;;;16.30
66299;BMP180;53098;47.658;8.578;2023-08-06T11:03:08;96052.00;;;16.00
66299;BMP180;53098;47.658;8.578;2023-08-06T11:05:35;96063.00;;;16.00
66299;BMP180;53098;47.658;8.578;2023-08-06T11:08:01;96041.00;;;15.90
66299;BMP180;53098;47.658;8.578;2023-08-06T11:10:26;96047.00;;;15.60
66299;BMP180;53098;47.658;8.578;2023-08-06T11:12:52;96041.00;;;15.80
66299;BMP180;53098;47.658;8.578;2023-08-06T11:15:20;96040.00;;;15.80
66299;BMP180;53098;47.658;8.578;2023-08-06T11:17:47;96052.00;;;15.70
66299;BMP180;53098;47.658;8.578;2023-08-06T11:20:13;96032.00;;;15.90
66299;BMP180;53098;47.658;8.578;2023-08-06T11:22:38;96037.00;;;16.10
66299;BMP180;53098;47.658;8.578;2023-08-06T11:25:05;96047.00;;;16.10
66299;BMP180;53098;47.658;8.578;2023-08-06T11:27:31;96036.00;;;16.20
66299;BMP180;53098;47.658;8.578;2023-08-06T11:29:57;96026.00;;;16.30
66299;BMP180;53098;47.658;8.578;2023-08-06T11:32:22;96038.00;;;16.60
66299;BMP180;53098;47.658;8.578;2023-08-06T11:34:47;96031.00;;;16.70
66299;BMP180;53098;47.658;8.578;2023-08-06T11:37:13;96049.00;;;16.40
66299;BMP180;53098;47.658;8.578;2023-08-06T11:39:39;96043.00;;;16.80
66299;BMP180;53098;47.658;8.578;2023-08-06T11:42:11;96037.00;;;16.60
66299;BMP180;53098;47.658;8.578;2023-08-06T11:44:37;96039.00;;;16.40
66299;BMP180;53098;47.658;8.578;2023-08-06T11:47:04;96037.00;;;16.50
66299;BMP180;53098;47.658;8.578;2023-08-06T11:52:10;96048.00;;;16.60
66299;BMP180;53098;47.658;8.578;2023-08-06T11:54:35;96036.00;;;16.50
66299;BMP180;53098;47.658;8.578;2023-08-06T11:57:01;96042.00;;;16.70
66299;BMP180;53098;47.658;8.578;2023-08-06T11:59:26;96047.00;;;16.30
66299;BMP180;53098;47.658;8.578;2023-08-06T12:01:52;96045.00;;;16.10
66299;BMP180;53098;47.658;8.578;2023-08-06T12:04:17;96055.00;;;16.50
66299;BMP180;53098;47.658;8.578;2023-08-06T12:06:43;96051.00;;;16.40
66299;BMP180;53098;47.658;8.578;2023-08-06T12:09:08;96052.00;;;16.10
66299;BMP180;53098;47.658;8.578;2023-08-06T12:11:33;96058.00;;;16.10
66299;BMP180;53098;47.658;8.578;2023-08-06T12:13:59;96071.00;;;16.40
66299;BMP180;53098;47.658;8.578;2023-08-06T12:16:25;96041.00;;;16.30
66299;BMP180;53098;47.658;8.578;2023-08-06T12:18:50;96066.00;;;16.30
66299;BMP180;53098;47.658;8.578;2023-08-06T12:21:16;96056.00;;;16.80
66299;BMP180;53098;47.658;8.578;2023-08-06T12:23:41;96060.00;;;16.50
66299;BMP180;53098;47.658;8.578;2023-08-06T12:26:07;96043.00;;;16.70
66299;BMP180;53098;47.658;8.578;2023-08-06T12:28:32;96040.00;;;16.90
66299;BMP180;53098;47.658;8.578;2023-08-06T12:30:58;96035.00;;;17.20
66299;BMP180;53098;47.658;8.578;2023-08-06T12:33:23;96029.00;;;17.40
66299;BMP180;53098;47.658;8.578;2023-08-06T12:35:49;96046.00;;;17.80
66299;BMP180;53098;47.658;8.578;2023-08-06T12:38:14;96041.00;;;18.00
66299;BMP180;53098;47.658;8.578;2023-08-06T12:40:39;96047.00;;;17.80
66299;BMP180;53098;47.658;8.578;2023-08-06T12:43:05;96058.00;;;17.80
66299;BMP180;53098;47.658;8.578;2023-08-06T12:45:30;96038.00;;;17.70
66299;BMP180;53098;47.658;8.578;2023-08-06T12:47:56;96024.00;;;17.80
66299;BMP180;53098;47.658;8.578;2023-08-06T12:50:21;96043.00;;;18.30
66299;BMP180;53098;47.658;8.578;2023-08-06T12:52:47;96050.00;;;18.10
66299;BMP180;53098;47.658;8.578;2023-08-06T12:55:12;96043.00;;;17.60
66299;BMP180;53098;47.658;8.578;2023-08-06T12:57:38;96078.00;;;18.00
66299;BMP180;53098;47.658;8.578;2023-08-06T13:00:04;96053.00;;;17.70
66299;BMP180;53098;47.658;8.578;2023-08-06T13:02:30;96068.00;;;18.10
66299;BMP180;53098;47.658;8.578;2023-08-06T13:04:55;96075.00;;;18.00
66299;BMP180;53098;47.658;8.578;2023-08-06T13:07:21;96063.00;;;17.40
66299;BMP180;53098;47.658;8.578;2023-08-06T13:09:46;96080.00;;;17.60
66299;BMP180;53098;47.658;8.578;2023-08-06T13:12:11;96081.00;;;17.60
66299;BMP180;53098;47.658;8.578;2023-08-06T13:14:37;96087.00;;;17.80
66299;BMP180;53098;47.658;8.578;2023-08-06T13:17:03;96064.00;;;17.70
66299;BMP180;53098;47.658;8.578;2023-08-06T13:19:28;96083.00;;;17.70
66299;BMP180;53098;47.658;8.578;2023-08-06T13:22:02;96060.00;;;17.60
66299;BMP180;53098;47.658;8.578;2023-08-06T13:24:28;96082.00;;;17.70
66299;BMP180;53098;47.658;8.578;2023-08-06T13:26:53;96083.00;;;17.90
66299;BMP180;53098;47.658;8.578;2023-08-06T13:29:19;96070.00;;;18.20
66299;BMP180;53098;47.658;8.578;2023-08-06T13:31:44;96088.00;;;18.30
66299;BMP180;53098;47.658;8.578;2023-08-06T13:34:10;96060.00;;;18.40
66299;BMP180;53098;47.658;8.578;2023-08-06T13:36:35;96076.00;;;18.30
66299;BMP180;53098;47.658;8.578;2023-08-06T13:39:01;96078.00;;;19.00
66299;BMP180;53098;47.658;8.578;2023-08-06T13:41:26;96103.00;;;18.60
66299;BMP180;53098;47.658;8.578;2023-08-06T13:43:52;96095.00;;;18.10
66299;BMP180;53098;47.658;8.578;2023-08-06T13:46:18;96091.00;;;17.80
66299;BMP180;53098;47.658;8.578;2023-08-06T13:48:45;96112.00;;;18.00
66299;BMP180;53098;47.658;8.578;2023-08-06T13:51:11;96121.00;;;18.20
66299;BMP180;53098;47.658;8.578;2023-08-06T13:53:40;96121.00;;;17.90
66299;BMP180;53098;47.658;8.578;2023-08-06T13:56:07;69211.00;;;17.30
66299;BMP180;53098;47.658;8.578;2023-08-06T13:58:33;96120.00;;;17.50
66299;BMP180;53098;47.658;8.578;2023-08-06T14:00:59;96124.00;;;17.60
66299;BMP180;53098;47.658;8.578;2023-08-06T14:03:24;96145.00;;;17.40
66299;BMP180;53098;47.658;8.578;2023-08-06T14:05:50;96147.00;;;16.90
66299;BMP180;53098;47.658;8.578;2023-08-06T14:08:16;96142.00;;;17.10
66299;BMP180;53098;47.658;8.578;2023-08-06T14:10:41;96124.00;;;17.40
66299;BMP180;53098;47.658;8.578;2023-08-06T14:13:07;96142.00;;;17.20
66299;BMP180;53098;47.658;8.578;2023-08-06T14:15:32;96158.00;;;17.10